Date,TemperatureHighF,TemperatureAvgF,TemperatureLowF,DewpointHighF,DewpointAvgF,DewpointLowF,HumidityHigh,HumidityAvg,HumidityLow,PressureMaxIn,PressureMinIn,WindSpeedMaxMPH,WindSpeedAvgMPH,GustSpeedMaxMPH,PrecipitationSumIn
2013-1-1,37,30,15,37,30,15,100,100,100,29.83,29.60,4,1,11,0.04
2013-1-2,32,18,7,32,18,7,100,100,100,30.01,29.79,5,0,10,0.00
2013-1-3,25,12,0,25,12,0,100,100,100,30.04,29.89,2,0,6,0.00
2013-1-4,39,27,14,39,27,14,100,100,100,29.88,29.70,4,1,9,0.00
2013-1-5,42,31,21,42,31,21,100,100,100,30.16,29.74,4,0,9,0.00
2013-1-6,43,31,22,43,31,22,100,100,100,30.11,29.83,3,0,7,0.04
2013-1-7,38,29,21,38,29,21,100,100,100,30.30,29.85,3,0,8,0.04
2013-1-8,47,32,20,47,32,20,100,100,100,30.26,30.15,4,0,9,0.04
2013-1-9,43,34,21,43,34,21,100,100,100,30.30,29.90,4,0,8,0.04
2013-1-10,46,39,30,46,39,30,100,100,100,30.43,29.93,5,1,13,0.00
2013-1-11,40,32,25,40,32,25,100,100,100,30.42,30.12,0,0,3,0.08
2013-1-12,42,38,35,42,38,35,100,100,100,30.12,30.02,0,0,0,0.00
2013-1-13,49,44,37,49,44,37,100,100,100,30.04,29.88,1,0,4,0.00
2013-1-14,60,49,39,60,49,39,100,100,100,30.14,29.74,3,0,9,0.00
2013-1-15,42,36,30,42,36,30,100,100,100,30.21,30.11,2,0,6,0.00
2013-1-16,33,31,29,33,31,29,100,100,100,30.14,29.72,0,0,3,0.04
2013-1-17,41,32,27,41,32,27,100,100,100,29.99,29.72,2,0,8,0.08
2013-1-18,28,20,14,28,20,14,100,100,100,30.35,29.96,4,0,11,0.00
2013-1-19,49,35,19,49,35,19,100,100,100,30.26,29.76,5,1,12,0.08
2013-1-20,53,39,26,53,38,-100,100,99,100,29.81,29.43,5,2,13,0.00
2013-1-21,31,24,18,31,24,18,100,100,100,29.99,29.69,4,1,9,0.00
2013-1-22,29,18,9,29,18,9,100,100,100,29.98,29.65,4,1,12,0.00
2013-1-23,16,9,4,16,9,4,100,100,100,30.04,29.95,4,1,12,0.00
2013-1-24,20,9,-2,20,9,-2,100,100,100,30.13,29.95,4,1,12,0.00
2013-1-25,25,15,4,25,15,4,100,100,100,30.20,29.96,3,0,7,0.00
2013-1-26,25,16,8,25,16,8,100,100,100,30.13,29.91,5,0,11,0.00
2013-1-27,30,19,8,30,19,8,100,100,100,30.36,30.13,3,0,8,0.00
2013-1-28,32,23,15,32,23,15,100,100,100,30.35,29.92,3,0,6,0.00
2013-1-29,35,29,24,35,29,24,100,100,100,30.09,29.92,0,0,3,0.00
2013-1-30,59,46,32,59,46,32,100,100,100,30.05,29.33,5,1,10,0.29
2013-1-31,60,46,28,60,46,28,100,100,100,29.48,28.85,8,3,16,0.33
2013-2-1,34,27,20,34,27,20,100,100,100,29.98,29.48,5,1,10,0.00
2013-2-2,32,23,14,32,23,14,100,100,100,30.14,29.94,5,1,8,0.00
2013-2-3,28,24,18,28,24,18,100,100,100,29.94,29.62,1,0,6,0.00
2013-2-4,33,23,18,33,23,18,100,100,100,29.83,29.61,6,1,11,0.00
2013-2-5,32,24,18,32,24,18,100,100,100,29.92,29.82,3,0,8,0.00
2013-2-6,41,29,21,41,29,21,100,100,100,30.18,29.81,4,0,9,0.04
2013-2-7,30,23,14,30,23,14,100,100,100,30.42,30.19,3,0,9,0.00
2013-2-8,28,22,17,28,22,17,100,100,100,30.38,29.54,4,0,10,0.00
2013-2-9,24,18,13,24,18,13,100,100,100,30.09,29.49,5,2,15,0.00
2013-2-10,41,22,4,41,22,4,100,100,100,30.29,30.10,3,0,7,0.08
2013-2-11,35,27,14,35,27,14,100,100,100,30.24,29.50,0,0,0,0.00
2013-2-12,47,37,31,47,37,31,100,100,100,29.77,29.50,5,1,12,0.13
2013-2-13,49,34,25,49,34,25,100,100,100,29.76,29.58,3,0,7,0.00
2013-2-14,46,34,26,46,34,26,100,100,100,29.88,29.61,2,0,6,0.00
2013-2-15,52,37,25,52,37,25,100,100,100,29.89,29.79,4,1,10,0.00
2013-2-16,41,34,28,41,34,28,100,100,100,29.85,29.63,2,0,8,0.00
2013-2-17,28,21,16,28,21,16,100,100,100,29.61,29.30,6,2,17,0.04
2013-2-18,33,22,12,33,22,12,100,100,100,30.05,29.58,5,1,14,0.00
2013-2-19,50,35,20,50,35,20,100,100,100,30.06,29.47,0,0,5,0.29
2013-2-20,39,32,24,39,32,24,100,100,100,29.67,29.43,5,2,12,0.00
2013-2-21,36,27,22,36,27,22,100,100,100,30.08,29.66,4,1,10,0.00
2013-2-22,46,31,20,46,31,20,100,100,100,30.29,30.10,1,0,6,0.00
2013-2-23,42,33,26,42,33,26,100,100,100,30.23,29.82,3,0,6,0.04
2013-2-24,34,32,30,34,32,30,100,100,100,29.82,29.60,2,0,6,0.29
2013-2-25,42,33,29,42,33,29,100,100,100,30.13,29.79,0,0,3,0.33
2013-2-26,46,35,27,46,35,27,100,100,100,30.23,30.06,2,0,6,0.21
2013-2-27,40,36,33,40,36,33,100,100,100,30.06,29.47,4,1,10,1.33
2013-2-28,49,38,32,49,38,32,100,100,100,29.53,29.43,2,0,5,0.00
2013-3-1,42,36,29,42,36,29,100,100,100,29.58,29.43,2,0,8,0.00
2013-3-2,46,37,29,46,37,29,100,100,100,29.58,29.52,2,0,6,0.00
2013-3-3,44,36,31,44,36,31,100,100,100,29.54,29.46,2,0,6,0.00
2013-3-4,42,34,28,42,34,28,100,100,100,29.64,29.48,4,1,10,0.00
2013-3-5,48,36,30,48,36,30,100,100,100,29.97,29.64,3,0,7,0.00
2013-3-6,42,35,32,42,35,32,100,100,100,30.01,29.94,4,1,8,0.12
2013-3-7,35,32,30,35,32,30,100,100,100,29.98,29.90,4,1,8,0.09
2013-3-8,37,32,29,37,32,29,100,100,100,30.06,29.84,0,0,6,0.04
2013-3-9,52,36,25,52,36,25,100,100,100,30.25,30.04,2,0,6,0.58
2013-3-10,49,35,24,49,35,24,100,100,100,30.32,30.20,3,0,7,0.00
2013-3-11,58,42,32,58,42,32,100,100,100,30.22,30.04,3,0,8,0.00
2013-3-12,58,48,39,58,48,39,100,100,100,30.05,29.62,4,0,8,0.33
2013-3-13,53,43,33,53,43,33,100,100,100,29.68,29.60,2,0,8,0.00
2013-3-14,42,31,21,42,31,21,100,100,100,29.74,29.61,4,0,10,0.00
2013-3-15,42,30,18,42,30,18,100,100,100,29.77,29.53,4,0,9,0.00
2013-3-16,43,33,25,43,33,25,100,100,100,29.78,29.57,2,0,6,0.00
2013-3-17,40,30,21,40,30,21,100,100,100,30.21,29.78,4,0,11,0.00
2013-3-18,42,29,14,42,29,14,100,100,100,30.36,30.14,3,0,7,0.00
2013-3-19,35,31,26,35,31,26,100,100,100,30.14,29.53,1,0,10,0.17
2013-3-20,42,30,23,42,30,23,100,100,100,29.71,29.60,3,0,9,0.17
2013-3-21,45,30,19,45,30,19,100,100,100,29.71,29.51,2,0,5,0.13
2013-3-22,47,34,25,47,34,25,100,100,100,29.63,29.50,4,0,10,0.20
2013-3-23,45,35,24,45,35,24,100,100,100,29.68,29.53,5,1,16,0.04
2013-3-24,52,38,29,52,38,29,100,100,100,29.71,29.62,4,0,10,0.00
2013-3-25,48,36,28,48,36,28,100,100,100,29.67,29.43,3,0,7,0.00
2013-3-26,53,41,33,53,41,33,100,100,100,29.67,29.44,3,0,6,0.00
2013-3-27,57,42,27,57,42,27,100,100,100,29.77,29.64,3,0,10,0.00
2013-3-28,53,42,34,53,42,34,100,100,100,29.91,29.77,1,0,5,0.00
2013-3-29,59,45,32,59,45,32,100,100,100,29.94,29.86,2,0,6,0.00
2013-3-30,59,46,33,59,46,33,100,100,100,29.99,29.90,3,0,9,0.00
2013-3-31,65,45,26,65,45,26,100,100,100,30.02,29.64,5,1,10,0.00
2013-4-1,65,47,33,65,47,33,100,100,100,29.68,29.40,5,1,13,0.16
2013-4-2,44,34,27,44,34,27,100,100,100,29.83,29.68,5,2,13,0.00
2013-4-3,48,37,28,48,37,28,100,100,100,30.05,29.81,6,2,13,0.00
2013-4-4,58,42,26,58,42,26,100,100,100,30.19,29.94,4,1,10,0.00
2013-4-5,64,46,33,64,46,33,100,100,100,29.94,29.52,4,1,9,0.00
2013-4-6,49,38,28,49,38,28,100,100,100,30.23,29.78,5,1,12,0.00
2013-4-7,61,42,24,61,42,24,100,100,100,30.24,29.89,6,2,13,0.00
2013-4-8,69,52,40,69,52,40,100,100,100,29.99,29.84,3,0,7,0.00
2013-4-9,73,56,44,73,56,44,100,100,100,29.98,29.75,5,1,12,0.04
2013-4-10,68,52,45,68,52,45,100,100,100,29.93,29.76,3,0,5,0.21
2013-4-11,56,47,40,56,47,40,100,100,100,30.04,29.72,1,0,6,0.08
2013-4-12,40,37,35,40,37,35,100,100,100,30.07,29.70,2,0,7,0.50
2013-4-13,56,43,34,56,43,34,100,100,100,29.84,29.66,3,0,6,0.04
2013-4-14,56,46,35,56,46,35,100,100,100,30.11,29.81,4,1,10,0.00
2013-4-15,63,46,29,63,46,29,100,100,100,30.28,30.11,4,0,8,0.00
2013-4-16,70,53,35,70,53,35,100,100,100,30.30,29.95,5,2,11,0.00
2013-4-17,69,58,46,69,58,46,100,100,100,30.23,29.94,3,1,8,0.00
2013-4-18,67,52,37,67,52,37,100,100,100,30.32,30.04,5,1,9,0.00
2013-4-19,80,64,52,80,64,52,100,100,100,30.03,29.54,6,2,14,0.00
2013-4-20,67,54,43,67,54,43,100,100,100,30.10,29.49,6,1,10,0.41
2013-4-21,56,43,31,56,43,31,100,100,100,30.58,30.12,3,1,10,0.00
2013-4-22,56,43,29,56,43,29,100,100,100,30.65,30.50,5,1,8,0.00
2013-4-23,42,39,35,42,39,35,100,100,100,30.50,30.04,1,0,5,0.04
2013-4-24,78,57,40,78,57,40,100,100,100,30.02,29.68,5,1,8,0.00
2013-4-25,68,56,44,68,56,44,100,100,100,30.17,29.72,4,1,11,0.00
2013-4-26,66,51,36,66,51,36,100,100,100,30.33,30.17,4,1,8,0.00
2013-4-27,70,53,36,70,53,36,100,100,100,30.32,30.18,3,0,6,0.00
2013-4-28,74,55,36,74,55,36,100,100,100,30.23,30.11,4,1,8,0.00
2013-4-29,75,59,44,75,59,44,100,100,100,30.17,30.08,4,1,8,0.00
2013-4-30,75,58,44,75,58,44,100,100,100,30.26,30.15,5,1,8,0.00
2013-5-1,74,56,36,74,56,36,100,100,100,30.36,30.26,4,0,8,0.00
2013-5-2,81,57,40,81,57,40,100,100,100,30.39,30.24,3,0,8,0.00
2013-5-3,66,52,40,66,52,40,100,100,100,30.42,30.28,4,0,6,0.00
2013-5-4,67,51,37,67,51,37,100,100,100,30.28,30.19,4,0,9,0.00
2013-5-5,66,50,34,66,50,34,100,100,100,30.24,30.15,4,0,8,0.00
2013-5-6,77,53,34,77,53,34,100,100,100,30.19,30.05,3,0,6,0.00
2013-5-7,83,64,42,83,64,42,100,100,100,30.07,29.98,2,0,7,0.00
2013-5-8,78,63,52,78,63,52,100,100,100,30.09,29.94,2,0,9,0.33
2013-5-9,70,60,56,70,60,56,100,100,100,29.95,29.79,0,0,4,0.50
2013-5-10,86,66,53,86,66,53,100,100,100,29.85,29.79,1,0,5,0.00
2013-5-11,72,64,58,72,64,58,100,100,100,29.81,29.59,2,0,8,0.08
2013-5-12,74,61,48,74,61,48,100,100,100,29.71,29.46,3,0,10,0.17
2013-5-13,65,50,38,65,50,38,100,100,100,29.93,29.71,3,0,9,0.00
2013-5-14,64,50,36,64,50,36,100,100,100,29.95,29.87,2,0,8,0.00
2013-5-15,71,52,34,71,52,34,100,100,100,29.95,29.57,3,0,8,0.00
2013-5-16,84,66,49,84,66,49,100,100,100,29.71,29.53,4,1,10,0.00
2013-5-17,72,60,50,72,60,50,100,100,100,30.11,29.71,3,0,8,0.04
2013-5-18,78,59,41,78,59,41,100,100,100,30.20,30.11,2,0,4,0.00
2013-5-19,77,58,47,77,58,47,100,100,100,30.24,30.11,2,0,6,0.13
2013-5-20,84,67,55,84,67,55,100,100,100,30.11,29.81,1,0,6,0.00
2013-5-21,82,63,51,82,63,51,100,100,100,29.92,29.77,2,0,6,0.00
2013-5-22,68,56,50,68,56,50,100,100,100,29.97,29.79,0,0,4,0.50
2013-5-23,78,64,53,78,64,53,100,100,100,29.82,29.70,1,0,7,0.13
2013-5-24,72,62,48,72,62,48,100,100,100,29.73,29.55,1,0,6,0.33
2013-5-25,52,47,40,52,47,40,100,100,100,29.72,29.61,2,0,10,0.37
2013-5-26,60,48,39,60,48,39,100,100,100,29.99,29.61,3,0,11,0.04
2013-5-27,76,57,39,76,57,39,100,100,100,30.07,29.97,2,0,7,0.00
2013-5-28,77,60,42,77,60,42,100,100,100,30.13,30.05,0,0,4,0.00
2013-5-29,69,62,56,69,62,56,100,100,100,30.08,29.88,0,0,4,1.04
2013-5-30,90,74,61,90,74,61,100,100,100,29.98,29.90,3,0,8,0.00
2013-5-31,96,80,63,96,80,63,100,100,100,29.99,29.83,2,0,8,0.00
2013-6-1,95,80,66,95,80,66,100,100,100,29.87,29.75,3,0,8,0.00
2013-6-2,92,78,68,92,78,68,100,100,100,29.78,29.60,4,1,9,0.00
2013-6-3,79,68,59,79,68,59,100,100,100,29.75,29.65,1,0,8,0.37
2013-6-4,74,62,49,74,62,49,100,100,100,29.94,29.73,4,0,6,0.00
2013-6-5,60,60,60,58,58,58,98,98,98,29.92,29.92,10,10,18,0.00
2013-6-15,80,72,60,80,72,60,100,100,100,29.83,29.76,2,0,6,0.00
2013-6-16,77,66,52,77,66,52,100,100,100,29.83,29.61,1,0,6,0.00
2013-6-17,88,69,58,88,69,58,100,100,100,29.80,29.67,2,0,9,0.29
2013-6-18,74,62,58,74,62,58,100,100,100,29.85,29.78,1,0,6,0.13
2013-6-19,75,63,55,75,63,55,100,100,100,30.05,29.81,1,0,5,0.12
2013-6-20,81,66,50,81,66,50,100,100,100,30.16,30.05,0,0,5,0.00
2013-6-21,87,71,58,87,71,58,100,100,100,30.14,30.09,2,0,5,0.00
2013-6-22,86,73,61,86,73,61,100,100,100,30.11,30.00,2,0,8,0.00
2013-6-23,91,77,65,91,77,65,100,100,100,30.05,29.88,2,0,6,0.00
2013-6-24,94,80,69,94,80,69,100,100,100,29.91,29.77,1,0,6,0.00
2013-6-25,92,79,68,92,79,68,100,100,100,29.82,29.62,2,0,10,0.00
2013-6-26,85,74,68,85,74,68,100,100,100,29.75,29.62,0,0,4,0.29
2013-6-27,76,66,62,76,66,62,100,100,100,29.77,29.66,0,0,0,0.04
2013-6-28,84,70,59,84,70,59,100,100,100,29.67,29.38,3,0,8,0.37
2013-6-29,86,75,69,86,75,69,100,100,100,29.61,29.40,2,0,8,0.00
2013-6-30,89,77,67,89,77,67,100,100,100,29.83,29.62,1,0,5,0.00
2013-7-1,85,74,70,85,74,70,100,100,100,29.98,29.83,1,0,4,0.54
2013-7-2,83,72,61,83,72,61,100,100,100,30.11,29.96,1,0,5,0.00
2013-7-3,89,75,61,89,75,61,100,100,100,30.10,30.02,1,0,8,0.00
2013-7-4,94,81,70,94,81,70,100,100,100,30.10,29.98,2,0,6,0.00
2013-7-5,94,83,73,94,83,73,100,100,100,30.05,29.93,2,0,7,0.00
2013-7-6,92,81,73,92,81,73,100,100,100,29.97,29.88,2,0,5,0.00
2013-7-7,93,78,67,93,78,67,100,100,100,29.92,29.80,0,0,4,0.00
2013-7-8,87,76,66,87,76,66,100,100,100,29.96,29.80,0,0,4,0.00
2013-7-9,74,68,65,74,68,65,100,100,100,30.01,29.94,0,0,3,0.00
2013-7-10,88,74,66,88,74,66,100,100,100,29.97,29.69,0,0,4,0.00
2013-7-11,84,75,70,84,75,70,100,100,100,29.83,29.67,0,0,4,0.00
2013-7-12,79,71,65,79,71,65,100,100,100,30.09,29.83,1,0,5,0.04
2013-7-13,82,71,64,82,71,64,100,100,100,30.21,30.10,0,0,3,0.00
2013-7-14,91,78,68,91,78,68,100,100,100,30.20,30.10,1,0,4,0.00
2013-7-15,93,79,70,93,79,70,100,100,100,30.10,29.99,0,0,4,0.00
2013-7-16,94,80,68,94,80,68,100,100,100,30.06,30.00,1,0,6,0.00
2013-7-17,95,81,69,95,81,69,100,100,100,30.07,29.88,1,0,4,0.00
2013-7-18,94,82,74,94,82,74,100,100,100,29.90,29.84,0,0,4,0.00
2013-7-19,97,84,71,97,84,71,100,100,100,29.84,29.60,3,0,10,0.00
2013-7-20,94,82,72,94,82,72,100,100,100,29.70,29.54,2,0,8,0.00
2013-7-21,84,74,66,84,74,66,100,100,100,29.88,29.70,0,0,4,0.00
2013-7-22,85,72,64,85,72,64,100,100,100,29.91,29.78,1,0,4,0.00
2013-7-23,79,71,68,79,71,68,100,100,100,29.78,29.44,1,0,5,2.53
2013-7-24,84,74,64,84,74,64,100,100,100,29.86,29.48,2,0,8,0.00
2013-7-25,64,60,58,64,60,58,100,100,100,30.01,29.86,1,0,6,1.62
2013-7-26,70,64,59,70,64,59,100,100,100,29.97,29.84,1,0,6,0.21
2013-7-27,85,70,59,85,70,59,100,100,100,29.95,29.88,1,0,7,0.00
2013-7-28,85,71,64,85,71,64,100,100,100,29.92,29.86,0,0,4,0.00
2013-7-29,86,73,66,86,73,66,100,100,100,29.94,29.85,0,0,8,0.00
2013-7-30,83,71,60,83,71,60,100,100,100,29.99,29.93,1,0,4,0.00
2013-7-31,85,71,59,85,71,59,100,100,100,30.04,29.94,0,0,4,0.00
2013-8-1,83,70,61,83,70,61,100,100,100,29.94,29.77,1,0,6,0.00
2013-8-2,82,70,63,82,70,63,100,100,100,29.78,29.69,0,0,7,0.04
2013-8-3,80,70,63,80,70,63,100,100,100,29.76,29.67,1,0,8,0.00
2013-8-4,81,67,58,81,67,58,100,100,100,29.79,29.67,1,0,5,0.00
2013-8-5,77,64,52,77,64,52,100,100,100,29.95,29.78,2,0,6,0.00
2013-8-6,81,64,48,81,64,48,100,100,100,30.05,29.94,0,0,3,0.00
2013-8-7,82,67,54,82,67,54,100,100,100,30.08,30.00,1,0,6,0.00
2013-8-8,81,71,64,81,71,64,100,100,100,30.02,29.90,1,0,5,0.00
2013-8-9,74,71,70,74,71,70,100,100,100,29.92,29.65,0,0,6,1.29
2013-8-10,84,72,62,84,72,62,100,100,100,29.91,29.68,1,0,5,0.00
2013-8-11,80,67,53,80,67,53,100,100,100,29.97,29.90,1,0,6,0.00
2013-8-12,84,69,57,84,69,57,100,100,100,29.92,29.82,0,0,5,0.00
2013-8-13,75,68,64,75,68,64,100,100,100,29.81,29.58,0,0,3,0.00
2013-8-14,76,66,58,76,66,58,100,100,100,29.86,29.56,3,0,7,0.00
2013-8-15,79,64,51,79,64,51,100,100,100,30.00,29.87,1,0,6,0.00
2013-8-16,80,66,53,80,66,53,100,100,100,30.09,29.99,1,0,5,0.00
2013-8-17,83,67,54,83,67,54,100,100,100,30.17,30.09,0,0,3,0.00
2013-8-18,78,67,57,78,67,57,100,100,100,30.17,29.97,0,0,0,0.00
2013-8-19,82,69,57,82,69,57,100,100,100,29.97,29.85,0,0,4,0.00
2013-8-20,86,73,61,86,73,61,100,100,100,29.98,29.87,0,0,4,0.00
2013-8-21,88,73,60,88,73,60,100,100,100,30.04,29.92,0,0,4,0.00
2013-8-22,87,75,64,87,75,64,100,100,100,29.92,29.72,1,0,5,0.00
2013-8-23,81,71,62,81,71,62,100,100,100,30.03,29.71,1,0,7,0.00
2013-8-24,79,65,53,79,65,53,100,100,100,30.23,30.03,0,0,4,0.00
2013-8-25,83,66,50,83,66,50,100,100,100,30.25,30.08,0,0,4,0.00
2013-8-26,81,70,63,81,70,63,100,100,100,30.07,29.76,1,0,6,0.00
2013-8-27,86,74,66,86,74,66,100,100,100,29.80,29.72,0,0,5,0.00
2013-8-28,88,71,62,88,71,62,100,100,100,29.88,29.75,0,0,5,0.00
2013-8-29,67,64,60,67,64,60,100,100,100,29.97,29.84,1,0,5,0.00
2013-8-30,84,70,60,84,70,60,100,100,100,29.92,29.72,1,0,4,0.00
2013-8-31,80,73,68,80,73,68,100,100,100,29.73,29.68,0,0,4,0.04
2013-9-1,81,73,69,81,73,69,100,100,100,29.78,29.68,1,0,5,0.00
2013-9-2,77,73,70,77,73,70,100,100,100,29.77,29.61,0,0,2,0.29
2013-9-3,81,72,62,81,72,62,100,100,100,29.71,29.59,0,0,4,0.04
2013-9-4,81,68,57,81,68,57,100,100,100,29.81,29.69,0,0,8,0.00
2013-9-5,70,62,51,70,62,51,100,100,100,30.04,29.75,0,0,5,0.00
2013-9-6,71,57,43,71,57,43,100,100,100,30.14,29.98,0,0,3,0.00
2013-9-7,80,62,48,80,62,48,100,100,100,29.98,29.74,0,0,5,0.00
2013-9-8,74,63,51,74,63,51,100,100,100,29.99,29.64,1,0,8,0.00
2013-9-9,71,57,42,71,57,42,100,100,100,30.13,29.99,0,0,5,0.00
2013-9-10,73,64,54,73,64,54,100,100,100,30.04,29.91,2,0,7,0.04
2013-9-11,94,79,68,94,79,68,100,100,100,29.96,29.83,1,0,5,0.00
2013-9-12,88,76,67,88,76,67,100,100,100,29.86,29.56,1,0,9,1.50
2013-9-13,79,67,59,79,67,59,100,100,100,29.65,29.46,0,0,4,0.12
2013-9-14,69,60,52,69,60,52,100,100,100,29.95,29.66,0,0,5,0.00
2013-9-15,73,58,48,73,58,48,100,100,100,30.05,29.94,0,0,4,0.00
2013-9-16,68,57,48,68,57,48,100,100,100,30.14,29.90,0,0,5,0.00
2013-9-17,64,51,39,64,51,39,100,100,100,30.31,30.15,1,0,6,0.00
2013-9-18,73,55,38,73,55,38,100,100,100,30.22,30.03,0,0,3,0.00
2013-9-19,78,61,45,78,61,45,100,100,100,30.03,29.93,0,0,0,0.00
2013-9-20,79,62,48,79,62,48,100,100,100,29.98,29.88,0,0,3,0.00
2013-9-21,75,64,52,75,64,52,100,100,100,29.92,29.61,0,0,6,0.00
2013-9-22,70,63,52,70,63,52,100,100,100,29.73,29.49,1,0,6,0.62
2013-9-23,63,52,44,63,52,44,100,100,100,29.90,29.73,2,0,6,0.00
2013-9-24,67,52,41,67,52,41,100,100,100,29.88,29.71,0,0,5,0.00
2013-9-25,68,54,44,68,54,44,100,100,100,29.88,29.77,0,0,4,0.00
2013-9-26,68,57,52,68,57,52,100,100,100,30.02,29.88,0,0,3,0.00
2013-9-27,66,58,51,66,58,51,100,100,100,30.15,30.02,0,0,5,0.00
2013-9-28,74,58,49,74,58,49,100,100,100,30.22,30.15,0,0,2,0.00
2013-9-29,69,54,47,69,54,47,100,100,100,30.16,30.02,0,0,0,0.00
2013-9-30,69,55,47,69,55,47,100,100,100,30.02,29.86,0,0,2,0.00
2013-10-1,75,59,46,75,59,46,100,100,100,29.86,29.74,0,0,4,0.00
2013-10-2,79,64,51,79,64,51,100,100,100,29.85,29.73,1,0,5,0.00
2013-10-3,76,62,52,76,62,52,100,100,100,29.97,29.85,0,0,5,0.00
2013-10-4,63,56,50,63,56,50,100,100,100,29.98,29.92,0,0,0,0.04
2013-10-5,68,61,56,68,61,56,100,100,100,30.02,29.95,0,0,2,0.00
2013-10-6,58,56,53,58,56,53,100,100,100,30.13,30.00,0,0,4,0.46
2013-10-7,75,64,56,75,64,56,100,100,100,30.02,29.70,2,0,9,0.04
2013-10-8,65,55,45,65,55,45,100,100,100,30.27,29.80,0,0,6,0.00
2013-10-9,62,49,40,62,49,40,100,100,100,30.37,30.26,0,0,5,0.00
2013-10-10,63,51,42,63,51,42,100,100,100,30.26,30.08,0,0,0,0.00
2013-10-11,70,56,47,70,56,47,100,100,100,30.07,29.99,0,0,4,0.00
2013-10-12,59,54,48,59,54,48,100,100,100,30.29,30.05,0,0,4,0.00
2013-10-13,61,51,41,61,51,41,100,100,100,30.34,30.27,0,0,3,0.00
2013-10-14,66,48,33,66,48,33,100,100,100,30.30,30.14,0,0,0,0.00
2013-10-15,66,55,48,66,55,48,100,100,100,30.15,30.07,0,0,3,0.00
2013-10-16,62,55,49,62,55,49,100,100,100,30.08,29.81,0,0,0,0.00
2013-10-17,72,60,50,72,60,50,100,100,100,29.81,29.61,0,0,4,0.00
2013-10-18,68,59,47,68,59,47,100,100,100,29.80,29.51,2,0,9,0.00
2013-10-19,68,54,40,68,54,40,100,100,100,29.86,29.64,0,0,4,0.00
2013-10-20,63,53,41,63,53,41,100,100,100,29.91,29.58,2,0,8,0.00
2013-10-21,67,50,35,67,50,35,100,100,100,30.01,29.89,0,0,6,0.00
2013-10-22,66,53,42,66,53,42,100,100,100,29.88,29.60,2,0,9,0.00
2013-10-23,53,45,35,53,45,35,100,100,100,29.69,29.49,0,0,0,0.00
2013-10-24,54,44,36,54,44,36,100,100,100,29.78,29.53,2,0,8,0.00
2013-10-25,51,40,31,51,40,31,100,100,100,30.04,29.78,1,0,7,0.00
2013-10-26,57,43,29,57,43,29,100,100,100,30.04,29.77,3,0,8,0.00
2013-10-27,56,46,40,56,46,40,100,100,100,29.95,29.70,2,0,12,0.00
2013-10-28,59,44,33,59,44,33,100,100,100,30.24,29.95,3,0,9,0.00
2013-10-29,50,37,28,50,37,28,100,100,100,30.35,30.24,0,0,4,0.00
2013-10-30,50,38,29,50,38,29,100,100,100,30.26,30.09,0,0,0,0.00
2013-10-31,58,45,30,58,45,30,100,100,100,30.13,29.68,0,0,5,0.17
2013-11-1,69,63,56,69,63,56,100,100,100,29.67,29.35,5,1,11,0.04
2013-11-2,67,55,46,67,55,46,100,100,100,29.63,29.48,1,0,5,0.00
2013-11-3,49,41,30,49,41,30,100,100,100,30.31,29.62,1,0,6,0.00
2013-11-4,44,32,24,44,32,24,100,100,100,30.59,30.32,1,0,6,0.00
2013-11-5,51,36,24,51,36,24,100,100,100,30.62,30.40,0,0,4,0.00
2013-11-6,62,49,37,62,49,37,100,100,100,30.40,29.93,2,0,8,0.00
2013-11-7,66,53,37,66,53,37,100,100,100,29.93,29.57,2,0,8,0.08
2013-11-8,48,38,30,48,38,30,100,100,100,29.98,29.70,2,0,10,0.00
2013-11-9,49,37,29,49,37,29,100,100,100,30.11,29.92,2,0,7,0.00
2013-11-10,57,44,38,57,44,38,100,100,100,29.92,29.63,3,0,8,0.00
2013-11-11,52,44,36,52,44,36,100,100,100,29.99,29.74,3,0,8,0.00
2013-11-12,47,34,25,47,34,25,100,100,100,30.08,29.77,2,0,7,0.08
2013-11-13,37,28,21,37,28,21,100,100,100,30.18,30.05,2,0,7,0.00
2013-11-14,51,37,26,51,37,26,100,100,100,30.04,29.93,3,0,8,0.00
2013-11-15,62,44,28,62,44,28,100,100,100,30.08,29.99,2,0,6,0.00
2013-11-16,61,44,34,61,44,34,100,100,100,30.21,30.07,2,0,4,0.00
2013-11-17,50,41,30,50,41,30,100,100,100,30.21,29.74,0,0,0,0.00
2013-11-18,64,55,46,64,55,46,100,100,100,29.73,29.42,3,0,9,0.25
2013-11-19,47,38,29,47,38,29,100,100,100,30.17,29.54,4,1,10,0.00
2013-11-20,41,31,23,41,31,23,100,100,100,30.52,30.17,2,0,8,0.00
2013-11-21,49,33,20,49,33,20,100,100,100,30.53,30.26,3,0,6,0.00
2013-11-22,45,41,35,45,41,35,100,100,100,30.26,29.70,0,0,0,0.13
2013-11-23,47,38,28,47,38,28,100,100,100,29.81,29.67,4,1,11,0.00
2013-11-24,28,23,18,28,23,18,100,100,100,30.08,29.68,7,2,13,0.00
2013-11-25,33,23,14,33,23,14,100,100,100,30.25,30.08,3,0,7,0.00
2013-11-26,39,34,30,39,34,30,100,100,100,30.23,29.93,3,0,7,0.08
2013-11-27,61,49,33,61,49,33,100,100,100,29.93,29.11,5,1,11,1.49
2013-11-28,35,29,21,35,29,21,100,100,100,30.32,29.34,5,1,15,0.00
2013-11-29,33,24,18,33,24,18,100,100,100,30.63,30.32,2,0,8,0.00
2013-11-30,34,23,12,34,23,12,100,100,100,30.69,30.31,3,0,5,0.04
2013-12-1,35,32,28,35,32,28,100,100,100,30.31,29.91,0,0,0,0.04
2013-12-2,38,36,34,38,36,34,100,100,100,29.91,29.81,0,0,0,0.00
2013-12-3,47,37,30,47,37,30,100,100,100,29.84,29.74,1,0,5,0.00
2013-12-4,44,33,27,44,33,27,100,100,100,30.09,29.84,1,0,5,0.00
2013-12-5,43,37,27,43,37,27,100,100,100,30.10,29.80,0,0,3,0.00
2013-12-6,54,46,33,54,46,32,100,100,100,30.05,29.74,0,0,4,0.16
2013-12-7,38,32,24,38,32,24,100,100,100,30.34,29.98,2,0,7,0.25
2013-12-8,32,26,20,32,26,20,100,100,100,30.49,30.34,0,0,4,0.00
2013-12-9,34,32,26,34,32,26,100,100,100,29.80,29.78,0,0,3,0.00
2013-12-10,32,29,22,32,29,22,100,100,100,29.80,29.78,2,0,6,0.04
2013-12-11,33,24,19,33,24,19,100,100,100,30.07,30.02,4,0,8,0.00
2013-12-12,25,19,12,25,19,12,100,100,100,30.16,29.95,4,0,8,0.00
2013-12-13,30,19,12,30,19,12,100,100,100,30.28,29.88,4,0,10,0.00
2013-12-14,18,13,8,18,13,8,100,100,100,30.51,30.05,2,0,5,0.00
2013-12-15,32,24,18,32,24,18,100,100,100,30.03,29.34,2,0,8,0.00
2013-12-16,28,21,12,28,21,12,100,100,100,30.09,29.63,4,1,10,0.00
2013-12-17,16,10,-1,16,10,-1,100,100,100,30.18,29.85,1,0,5,0.00
2013-12-18,36,23,13,33,23,13,100,100,100,29.96,29.76,3,0,8,0.04
2013-12-19,42,32,23,42,32,23,100,100,100,30.00,29.84,4,1,10,0.04
2013-12-20,53,40,29,53,40,29,100,100,100,30.01,29.79,3,0,8,0.50
2013-12-21,58,46,38,58,46,38,100,100,100,29.85,29.74,3,0,6,0.04
2013-12-22,50,39,32,50,39,32,100,100,100,29.92,29.69,3,0,6,0.00
2013-12-23,35,32,31,35,32,31,100,100,100,29.99,29.86,0,0,4,0.62
2013-12-24,35,31,24,35,31,24,100,100,100,30.09,29.94,2,0,6,0.00
2013-12-25,25,18,12,25,18,12,100,100,100,30.44,30.09,2,0,8,0.00
2013-12-26,31,22,13,31,22,13,100,100,100,30.39,29.98,0,0,0,0.00
2013-12-27,35,26,19,35,26,19,100,100,100,30.17,30.08,3,0,8,0.00
2013-12-28,46,32,20,46,32,20,100,100,100,30.10,29.88,3,0,8,0.04
2013-12-29,41,34,28,41,34,28,100,100,100,29.92,29.32,3,0,8,1.29
2013-12-30,41,31,16,41,31,16,100,100,100,30.06,29.41,4,0,11,0.00
2013-12-31,24,17,11,24,17,11,100,100,100,30.07,29.92,2,0,6,0.00
2014-1-1,28,20,12,28,20,12,100,100,100,30.28,30.07,3,0,10,0.00
2014-1-2,18,10,-1,18,10,-1,100,100,100,30.25,29.77,2,0,6,0.00